KNIP

Jacksonville NAS (Towers Field) Airport

Jacksonville, Florida, USA
METAR KNIP 140653Z 00000KT 10SM SCT044 BKN120 OVC250 18/17 A3006 RMK AO2 RAE40 SLP174 P0000 T01780167
Observed Flight Rules
Dec-14 @ 06:53 UTC (53 minutes ago) Visual Flight Rules
Visibility Clouds
10 miles
  • Scattered at 4,400' AGL
  • Broken at 12,000' AGL
  • Overcast at 25,000' AGL
Temperatures Readings Precipitation
Current 18°C / 64°F
Dewpoint 17°C / 63°F
Humidity 94%
Altimeter 30.06" Hg
Pressure 1017.4 hPa
Elevation 7
Current Rain 0.005
METAR KNIP 140653Z 00000KT 10SM SCT044 BKN120 OVC250 18/17 A3006 RMK AO2 RAE40 SLP174 P0000 T01780167
Observed Flight Rules
Dec-14 @ 06:53 UTC
(53 minutes ago)
VFR
Clouds
  • Scattered at 4,400' AGL
  • Broken at 12,000' AGL
  • Overcast at 25,000' AGL
Temperature Dewpoint
18°C / 64°F 17°C / 63°F
Humidity Altimeter Pressure
94% 30.06" Hg 1017.4 hPa
Current Rain
0.005